sensor_id;sensor_type;location;lat;lon;timestamp;P1;durP1;ratioP1;P2;durP2;ratioP2
68365;SDS011;55283;51.466;5.478;2023-03-23T00:00:45;1.20;;;1.10;;
68365;SDS011;55283;51.466;5.478;2023-03-23T00:03:12;1.45;;;0.90;;
68365;SDS011;55283;51.466;5.478;2023-03-23T00:05:42;1.03;;;0.90;;
68365;SDS011;55283;51.466;5.478;2023-03-23T00:08:15;0.80;;;0.80;;
68365;SDS011;55283;51.466;5.478;2023-03-23T00:10:50;0.85;;;0.80;;
68365;SDS011;55283;51.466;5.478;2023-03-23T00:13:18;0.80;;;0.80;;
68365;SDS011;55283;51.466;5.478;2023-03-23T00:15:45;1.00;;;0.90;;
68365;SDS011;55283;51.466;5.478;2023-03-23T00:18:15;1.10;;;0.90;;
68365;SDS011;55283;51.466;5.478;2023-03-23T00:20:54;1.10;;;1.00;;
68365;SDS011;55283;51.466;5.478;2023-03-23T00:23:22;1.10;;;1.00;;
68365;SDS011;55283;51.466;5.478;2023-03-23T00:25:53;0.90;;;0.90;;
68365;SDS011;55283;51.466;5.478;2023-03-23T00:28:23;1.00;;;0.90;;
68365;SDS011;55283;51.466;5.478;2023-03-23T00:33:23;1.17;;;1.08;;
68365;SDS011;55283;51.466;5.478;2023-03-23T00:35:51;1.10;;;0.90;;
68365;SDS011;55283;51.466;5.478;2023-03-23T00:38:20;1.20;;;1.10;;
68365;SDS011;55283;51.466;5.478;2023-03-23T00:40:49;2.25;;;1.02;;
68365;SDS011;55283;51.466;5.478;2023-03-23T00:43:19;1.08;;;0.85;;
68365;SDS011;55283;51.466;5.478;2023-03-23T00:45:49;1.00;;;0.90;;
68365;SDS011;55283;51.466;5.478;2023-03-23T00:48:19;1.00;;;0.90;;
68365;SDS011;55283;51.466;5.478;2023-03-23T00:50:45;1.10;;;0.90;;
68365;SDS011;55283;51.466;5.478;2023-03-23T00:53:11;0.98;;;0.95;;
68365;SDS011;55283;51.466;5.478;2023-03-23T00:55:37;0.80;;;0.80;;
68365;SDS011;55283;51.466;5.478;2023-03-23T00:58:02;1.03;;;0.87;;
68365;SDS011;55283;51.466;5.478;2023-03-23T01:00:28;0.90;;;0.90;;
68365;SDS011;55283;51.466;5.478;2023-03-23T01:02:53;1.10;;;1.00;;
68365;SDS011;55283;51.466;5.478;2023-03-23T01:05:19;1.13;;;1.03;;
68365;SDS011;55283;51.466;5.478;2023-03-23T01:07:45;1.90;;;0.90;;
68365;SDS011;55283;51.466;5.478;2023-03-23T01:10:12;1.13;;;1.00;;
68365;SDS011;55283;51.466;5.478;2023-03-23T01:12:41;0.87;;;0.80;;
68365;SDS011;55283;51.466;5.478;2023-03-23T01:15:08;1.10;;;1.00;;
68365;SDS011;55283;51.466;5.478;2023-03-23T01:17:34;1.08;;;0.98;;
68365;SDS011;55283;51.466;5.478;2023-03-23T01:20:00;1.13;;;1.10;;
68365;SDS011;55283;51.466;5.478;2023-03-23T01:22:31;1.20;;;1.00;;
68365;SDS011;55283;51.466;5.478;2023-03-23T01:24:57;1.27;;;1.00;;
68365;SDS011;55283;51.466;5.478;2023-03-23T01:27:22;0.88;;;0.88;;
68365;SDS011;55283;51.466;5.478;2023-03-23T01:29:50;1.10;;;1.00;;
68365;SDS011;55283;51.466;5.478;2023-03-23T01:32:16;1.00;;;0.80;;
68365;SDS011;55283;51.466;5.478;2023-03-23T01:34:41;0.90;;;0.90;;
68365;SDS011;55283;51.466;5.478;2023-03-23T01:37:07;1.10;;;1.00;;
68365;SDS011;55283;51.466;5.478;2023-03-23T01:39:32;1.00;;;0.90;;
68365;SDS011;55283;51.466;5.478;2023-03-23T01:42:00;1.27;;;1.10;;
68365;SDS011;55283;51.466;5.478;2023-03-23T01:46:57;1.10;;;1.00;;
68365;SDS011;55283;51.466;5.478;2023-03-23T01:49:27;1.37;;;1.20;;
68365;SDS011;55283;51.466;5.478;2023-03-23T01:52:06;1.50;;;0.82;;
68365;SDS011;55283;51.466;5.478;2023-03-23T01:54:36;0.80;;;0.80;;
68365;SDS011;55283;51.466;5.478;2023-03-23T01:57:07;0.80;;;0.80;;
68365;SDS011;55283;51.466;5.478;2023-03-23T01:59:38;1.20;;;1.10;;
68365;SDS011;55283;51.466;5.478;2023-03-23T02:02:10;1.10;;;1.00;;
68365;SDS011;55283;51.466;5.478;2023-03-23T02:04:36;0.98;;;0.88;;
68365;SDS011;55283;51.466;5.478;2023-03-23T02:07:03;1.10;;;1.00;;
68365;SDS011;55283;51.466;5.478;2023-03-23T02:09:28;0.93;;;0.93;;
68365;SDS011;55283;51.466;5.478;2023-03-23T02:11:56;1.02;;;0.80;;
68365;SDS011;55283;51.466;5.478;2023-03-23T02:14:23;1.10;;;1.00;;
68365;SDS011;55283;51.466;5.478;2023-03-23T02:27:28;0.88;;;0.88;;
68365;SDS011;55283;51.466;5.478;2023-03-23T02:35:24;1.20;;;1.10;;
68365;SDS011;55283;51.466;5.478;2023-03-23T02:38:41;0.80;;;0.80;;
68365;SDS011;55283;51.466;5.478;2023-03-23T02:40:54;1.10;;;0.90;;
68365;SDS011;55283;51.466;5.478;2023-03-23T02:43:25;0.80;;;0.80;;
68365;SDS011;55283;51.466;5.478;2023-03-23T02:45:53;1.02;;;0.93;;
68365;SDS011;55283;51.466;5.478;2023-03-23T02:48:22;1.10;;;0.80;;
68365;SDS011;55283;51.466;5.478;2023-03-23T02:50:52;0.95;;;0.95;;
68365;SDS011;55283;51.466;5.478;2023-03-23T02:53:18;1.00;;;0.97;;
68365;SDS011;55283;51.466;5.478;2023-03-23T02:55:48;0.80;;;0.80;;
68365;SDS011;55283;51.466;5.478;2023-03-23T02:58:17;1.45;;;0.93;;
68365;SDS011;55283;51.466;5.478;2023-03-23T03:00:43;1.80;;;1.05;;
68365;SDS011;55283;51.466;5.478;2023-03-23T03:03:13;1.07;;;1.00;;
68365;SDS011;55283;51.466;5.478;2023-03-23T03:08:57;1.10;;;1.00;;
68365;SDS011;55283;51.466;5.478;2023-03-23T03:11:32;0.80;;;0.80;;
68365;SDS011;55283;51.466;5.478;2023-03-23T03:14:00;1.00;;;0.90;;
68365;SDS011;55283;51.466;5.478;2023-03-23T03:19:10;0.90;;;0.90;;
68365;SDS011;55283;51.466;5.478;2023-03-23T03:21:38;1.00;;;0.90;;
68365;SDS011;55283;51.466;5.478;2023-03-23T03:24:08;0.90;;;0.90;;
68365;SDS011;55283;51.466;5.478;2023-03-23T03:26:40;1.00;;;1.00;;
68365;SDS011;55283;51.466;5.478;2023-03-23T03:29:13;0.95;;;0.90;;
68365;SDS011;55283;51.466;5.478;2023-03-23T03:31:42;1.15;;;0.90;;
68365;SDS011;55283;51.466;5.478;2023-03-23T03:34:13;1.30;;;1.00;;
68365;SDS011;55283;51.466;5.478;2023-03-23T03:36:42;1.38;;;0.82;;
68365;SDS011;55283;51.466;5.478;2023-03-23T03:39:10;1.00;;;0.90;;
68365;SDS011;55283;51.466;5.478;2023-03-23T03:41:37;0.90;;;0.90;;
68365;SDS011;55283;51.466;5.478;2023-03-23T03:44:06;1.13;;;1.00;;
68365;SDS011;55283;51.466;5.478;2023-03-23T03:46:33;0.93;;;0.90;;
68365;SDS011;55283;51.466;5.478;2023-03-23T03:49:00;1.00;;;0.90;;
68365;SDS011;55283;51.466;5.478;2023-03-23T03:51:30;0.83;;;0.83;;
68365;SDS011;55283;51.466;5.478;2023-03-23T03:53:57;1.00;;;1.00;;
68365;SDS011;55283;51.466;5.478;2023-03-23T03:56:23;0.80;;;0.80;;
68365;SDS011;55283;51.466;5.478;2023-03-23T03:58:49;0.87;;;0.80;;
68365;SDS011;55283;51.466;5.478;2023-03-23T04:01:16;0.82;;;0.82;;
68365;SDS011;55283;51.466;5.478;2023-03-23T04:03:43;1.10;;;1.00;;
68365;SDS011;55283;51.466;5.478;2023-03-23T04:06:11;1.30;;;1.00;;
68365;SDS011;55283;51.466;5.478;2023-03-23T04:08:39;1.00;;;0.90;;
68365;SDS011;55283;51.466;5.478;2023-03-23T04:11:09;0.90;;;0.90;;
68365;SDS011;55283;51.466;5.478;2023-03-23T04:13:36;0.93;;;0.93;;
68365;SDS011;55283;51.466;5.478;2023-03-23T04:16:05;1.13;;;0.90;;
68365;SDS011;55283;51.466;5.478;2023-03-23T04:18:31;1.63;;;0.80;;
68365;SDS011;55283;51.466;5.478;2023-03-23T04:20:58;1.08;;;0.88;;
68365;SDS011;55283;51.466;5.478;2023-03-23T04:23:24;1.07;;;1.00;;
68365;SDS011;55283;51.466;5.478;2023-03-23T04:25:51;0.98;;;0.90;;
68365;SDS011;55283;51.466;5.478;2023-03-23T04:28:22;0.80;;;0.80;;
68365;SDS011;55283;51.466;5.478;2023-03-23T04:30:49;0.80;;;0.80;;
68365;SDS011;55283;51.466;5.478;2023-03-23T04:33:18;1.00;;;1.00;;
68365;SDS011;55283;51.466;5.478;2023-03-23T04:35:44;0.88;;;0.88;;
68365;SDS011;55283;51.466;5.478;2023-03-23T04:38:13;0.85;;;0.80;;
68365;SDS011;55283;51.466;5.478;2023-03-23T04:40:45;0.87;;;0.87;;
68365;SDS011;55283;51.466;5.478;2023-03-23T04:43:11;1.65;;;0.98;;
68365;SDS011;55283;51.466;5.478;2023-03-23T04:45:38;1.63;;;0.98;;
68365;SDS011;55283;51.466;5.478;2023-03-23T04:48:06;0.90;;;0.90;;
68365;SDS011;55283;51.466;5.478;2023-03-23T04:50:33;1.15;;;0.90;;
68365;SDS011;55283;51.466;5.478;2023-03-23T04:52:59;1.02;;;0.95;;
68365;SDS011;55283;51.466;5.478;2023-03-23T04:55:29;0.83;;;0.83;;
68365;SDS011;55283;51.466;5.478;2023-03-23T04:57:57;1.10;;;1.00;;
68365;SDS011;55283;51.466;5.478;2023-03-23T05:00:26;0.80;;;0.80;;
68365;SDS011;55283;51.466;5.478;2023-03-23T05:02:52;0.80;;;0.80;;
68365;SDS011;55283;51.466;5.478;2023-03-23T05:05:20;1.20;;;1.00;;
68365;SDS011;55283;51.466;5.478;2023-03-23T05:07:49;0.80;;;0.80;;
68365;SDS011;55283;51.466;5.478;2023-03-23T05:10:15;1.50;;;1.00;;
68365;SDS011;55283;51.466;5.478;2023-03-23T05:12:41;1.13;;;1.00;;
68365;SDS011;55283;51.466;5.478;2023-03-23T05:15:10;1.00;;;0.90;;
68365;SDS011;55283;51.466;5.478;2023-03-23T05:17:37;0.87;;;0.87;;
68365;SDS011;55283;51.466;5.478;2023-03-23T05:20:04;1.10;;;1.00;;
68365;SDS011;55283;51.466;5.478;2023-03-23T05:22:33;0.95;;;0.82;;
68365;SDS011;55283;51.466;5.478;2023-03-23T05:24:59;0.90;;;0.90;;
68365;SDS011;55283;51.466;5.478;2023-03-23T05:27:27;1.00;;;0.90;;
68365;SDS011;55283;51.466;5.478;2023-03-23T05:29:55;0.80;;;0.80;;
68365;SDS011;55283;51.466;5.478;2023-03-23T05:32:25;1.00;;;0.90;;
68365;SDS011;55283;51.466;5.478;2023-03-23T05:34:57;1.17;;;1.10;;
68365;SDS011;55283;51.466;5.478;2023-03-23T05:37:24;1.30;;;0.98;;
68365;SDS011;55283;51.466;5.478;2023-03-23T05:39:51;1.70;;;1.03;;
68365;SDS011;55283;51.466;5.478;2023-03-23T05:42:18;0.82;;;0.82;;
68365;SDS011;55283;51.466;5.478;2023-03-23T05:44:44;0.93;;;0.90;;
68365;SDS011;55283;51.466;5.478;2023-03-23T05:47:10;1.17;;;1.00;;
68365;SDS011;55283;51.466;5.478;2023-03-23T05:49:35;0.80;;;0.80;;
68365;SDS011;55283;51.466;5.478;2023-03-23T05:52:01;0.97;;;0.83;;
68365;SDS011;55283;51.466;5.478;2023-03-23T05:54:26;0.70;;;0.70;;
68365;SDS011;55283;51.466;5.478;2023-03-23T05:56:52;1.05;;;1.00;;
68365;SDS011;55283;51.466;5.478;2023-03-23T05:59:21;1.00;;;0.90;;
68365;SDS011;55283;51.466;5.478;2023-03-23T06:01:46;0.90;;;0.80;;
68365;SDS011;55283;51.466;5.478;2023-03-23T06:04:11;0.90;;;0.90;;
68365;SDS011;55283;51.466;5.478;2023-03-23T06:06:38;0.98;;;0.90;;
68365;SDS011;55283;51.466;5.478;2023-03-23T06:09:06;0.80;;;0.80;;
68365;SDS011;55283;51.466;5.478;2023-03-23T06:11:32;0.80;;;0.80;;
68365;SDS011;55283;51.466;5.478;2023-03-23T06:13:57;1.40;;;1.00;;
68365;SDS011;55283;51.466;5.478;2023-03-23T06:16:22;0.80;;;0.80;;
68365;SDS011;55283;51.466;5.478;2023-03-23T06:18:48;1.00;;;0.90;;
68365;SDS011;55283;51.466;5.478;2023-03-23T06:21:14;0.80;;;0.80;;
68365;SDS011;55283;51.466;5.478;2023-03-23T06:23:43;0.80;;;0.80;;
68365;SDS011;55283;51.466;5.478;2023-03-23T06:26:09;1.00;;;0.90;;
68365;SDS011;55283;51.466;5.478;2023-03-23T06:28:37;0.93;;;0.90;;
68365;SDS011;55283;51.466;5.478;2023-03-23T06:31:03;1.30;;;1.00;;
68365;SDS011;55283;51.466;5.478;2023-03-23T06:33:36;1.33;;;0.80;;
68365;SDS011;55283;51.466;5.478;2023-03-23T06:36:03;0.95;;;0.90;;
68365;SDS011;55283;51.466;5.478;2023-03-23T06:38:29;1.23;;;1.00;;
68365;SDS011;55283;51.466;5.478;2023-03-23T06:40:55;1.17;;;0.87;;
68365;SDS011;55283;51.466;5.478;2023-03-23T06:43:22;2.08;;;1.10;;
68365;SDS011;55283;51.466;5.478;2023-03-23T06:45:47;1.07;;;1.03;;
68365;SDS011;55283;51.466;5.478;2023-03-23T06:48:13;2.45;;;0.95;;
68365;SDS011;55283;51.466;5.478;2023-03-23T06:50:41;3.07;;;0.77;;
68365;SDS011;55283;51.466;5.478;2023-03-23T06:53:08;1.95;;;0.80;;
68365;SDS011;55283;51.466;5.478;2023-03-23T06:55:33;1.90;;;1.00;;
68365;SDS011;55283;51.466;5.478;2023-03-23T06:58:00;1.33;;;0.80;;
68365;SDS011;55283;51.466;5.478;2023-03-23T07:00:26;0.80;;;0.80;;
68365;SDS011;55283;51.466;5.478;2023-03-23T07:02:52;0.90;;;0.80;;
68365;SDS011;55283;51.466;5.478;2023-03-23T07:05:18;0.80;;;0.80;;
68365;SDS011;55283;51.466;5.478;2023-03-23T07:07:43;1.67;;;0.70;;
68365;SDS011;55283;51.466;5.478;2023-03-23T07:10:09;4.50;;;0.90;;
68365;SDS011;55283;51.466;5.478;2023-03-23T07:12:36;2.85;;;1.00;;
68365;SDS011;55283;51.466;5.478;2023-03-23T07:15:04;2.37;;;1.00;;
68365;SDS011;55283;51.466;5.478;2023-03-23T07:17:30;4.00;;;1.00;;
68365;SDS011;55283;51.466;5.478;2023-03-23T07:19:57;1.45;;;0.90;;
68365;SDS011;55283;51.466;5.478;2023-03-23T07:22:22;2.63;;;1.20;;
68365;SDS011;55283;51.466;5.478;2023-03-23T07:24:47;5.47;;;1.13;;
68365;SDS011;55283;51.466;5.478;2023-03-23T07:27:13;2.28;;;1.20;;
68365;SDS011;55283;51.466;5.478;2023-03-23T07:29:39;2.80;;;1.00;;
68365;SDS011;55283;51.466;5.478;2023-03-23T07:32:09;5.47;;;1.13;;
68365;SDS011;55283;51.466;5.478;2023-03-23T07:34:36;7.73;;;1.27;;
68365;SDS011;55283;51.466;5.478;2023-03-23T07:37:02;1.33;;;0.93;;
68365;SDS011;55283;51.466;5.478;2023-03-23T07:39:28;2.75;;;0.90;;
68365;SDS011;55283;51.466;5.478;2023-03-23T07:41:59;1.60;;;1.00;;
68365;SDS011;55283;51.466;5.478;2023-03-23T07:44:24;5.33;;;0.80;;
68365;SDS011;55283;51.466;5.478;2023-03-23T07:46:50;3.53;;;0.90;;
68365;SDS011;55283;51.466;5.478;2023-03-23T07:49:16;2.33;;;1.00;;
68365;SDS011;55283;51.466;5.478;2023-03-23T07:51:42;1.85;;;1.00;;
68365;SDS011;55283;51.466;5.478;2023-03-23T07:54:08;1.60;;;0.90;;
68365;SDS011;55283;51.466;5.478;2023-03-23T07:56:34;1.70;;;1.00;;
68365;SDS011;55283;51.466;5.478;2023-03-23T07:59:02;2.92;;;1.02;;
68365;SDS011;55283;51.466;5.478;2023-03-23T08:01:31;2.60;;;0.90;;
68365;SDS011;55283;51.466;5.478;2023-03-23T08:03:57;1.42;;;0.90;;
68365;SDS011;55283;51.466;5.478;2023-03-23T08:06:26;3.47;;;1.17;;
68365;SDS011;55283;51.466;5.478;2023-03-23T08:08:52;2.63;;;0.90;;
68365;SDS011;55283;51.466;5.478;2023-03-23T08:11:18;1.95;;;0.90;;
68365;SDS011;55283;51.466;5.478;2023-03-23T08:13:50;2.42;;;1.35;;
68365;SDS011;55283;51.466;5.478;2023-03-23T08:16:16;1.77;;;0.95;;
68365;SDS011;55283;51.466;5.478;2023-03-23T08:18:44;2.23;;;0.90;;
68365;SDS011;55283;51.466;5.478;2023-03-23T08:21:09;2.40;;;1.10;;
68365;SDS011;55283;51.466;5.478;2023-03-23T08:23:35;2.77;;;0.90;;
68365;SDS011;55283;51.466;5.478;2023-03-23T08:26:02;2.92;;;0.98;;
68365;SDS011;55283;51.466;5.478;2023-03-23T08:28:29;3.00;;;1.03;;
68365;SDS011;55283;51.466;5.478;2023-03-23T08:30:55;2.15;;;0.90;;
68365;SDS011;55283;51.466;5.478;2023-03-23T08:33:23;2.10;;;1.00;;
68365;SDS011;55283;51.466;5.478;2023-03-23T08:35:56;1.95;;;1.00;;
68365;SDS011;55283;51.466;5.478;2023-03-23T08:38:23;2.27;;;1.20;;
68365;SDS011;55283;51.466;5.478;2023-03-23T08:40:49;2.70;;;1.15;;
68365;SDS011;55283;51.466;5.478;2023-03-23T08:43:15;2.60;;;1.00;;
68365;SDS011;55283;51.466;5.478;2023-03-23T08:45:41;8.17;;;1.10;;
68365;SDS011;55283;51.466;5.478;2023-03-23T08:48:09;1.75;;;1.30;;
68365;SDS011;55283;51.466;5.478;2023-03-23T08:50:37;2.17;;;1.20;;
68365;SDS011;55283;51.466;5.478;2023-03-23T08:53:06;2.10;;;1.10;;
68365;SDS011;55283;51.466;5.478;2023-03-23T08:55:34;3.25;;;1.20;;
68365;SDS011;55283;51.466;5.478;2023-03-23T08:57:59;1.93;;;1.10;;
68365;SDS011;55283;51.466;5.478;2023-03-23T09:00:28;1.60;;;1.10;;
68365;SDS011;55283;51.466;5.478;2023-03-23T09:02:54;2.20;;;1.00;;
68365;SDS011;55283;51.466;5.478;2023-03-23T09:05:22;2.10;;;1.17;;
68365;SDS011;55283;51.466;5.478;2023-03-23T09:07:50;2.38;;;0.90;;
68365;SDS011;55283;51.466;5.478;2023-03-23T09:10:17;1.20;;;1.10;;
68365;SDS011;55283;51.466;5.478;2023-03-23T09:12:43;2.83;;;1.30;;
68365;SDS011;55283;51.466;5.478;2023-03-23T09:15:12;2.28;;;1.02;;
68365;SDS011;55283;51.466;5.478;2023-03-23T09:17:40;1.63;;;1.10;;
68365;SDS011;55283;51.466;5.478;2023-03-23T09:20:10;1.80;;;1.20;;
68365;SDS011;55283;51.466;5.478;2023-03-23T09:22:46;1.55;;;1.08;;
68365;SDS011;55283;51.466;5.478;2023-03-23T09:25:15;2.20;;;1.23;;
68365;SDS011;55283;51.466;5.478;2023-03-23T09:27:44;2.70;;;1.10;;
68365;SDS011;55283;51.466;5.478;2023-03-23T09:30:21;2.67;;;1.10;;
68365;SDS011;55283;51.466;5.478;2023-03-23T09:32:55;4.32;;;1.27;;
68365;SDS011;55283;51.466;5.478;2023-03-23T09:35:21;2.80;;;1.47;;
68365;SDS011;55283;51.466;5.478;2023-03-23T09:37:48;5.82;;;1.38;;
68365;SDS011;55283;51.466;5.478;2023-03-23T09:40:21;5.30;;;1.50;;
68365;SDS011;55283;51.466;5.478;2023-03-23T09:45:41;5.45;;;1.58;;
68365;SDS011;55283;51.466;5.478;2023-03-23T09:54:17;9.43;;;1.45;;
68365;SDS011;55283;51.466;5.478;2023-03-23T09:56:50;5.65;;;1.30;;
68365;SDS011;55283;51.466;5.478;2023-03-23T10:02:35;4.40;;;1.50;;
68365;SDS011;55283;51.466;5.478;2023-03-23T10:05:20;6.80;;;1.30;;
68365;SDS011;55283;51.466;5.478;2023-03-23T10:07:47;3.60;;;1.30;;
68365;SDS011;55283;51.466;5.478;2023-03-23T10:10:13;3.43;;;1.30;;
68365;SDS011;55283;51.466;5.478;2023-03-23T10:12:45;4.20;;;1.30;;
68365;SDS011;55283;51.466;5.478;2023-03-23T10:25:24;6.80;;;1.30;;
68365;SDS011;55283;51.466;5.478;2023-03-23T10:30:40;4.18;;;1.40;;
68365;SDS011;55283;51.466;5.478;2023-03-23T10:35:57;2.43;;;1.20;;
68365;SDS011;55283;51.466;5.478;2023-03-23T10:38:33;4.78;;;1.27;;
68365;SDS011;55283;51.466;5.478;2023-03-23T10:41:15;5.38;;;1.42;;
68365;SDS011;55283;51.466;5.478;2023-03-23T10:43:43;2.55;;;1.10;;
68365;SDS011;55283;51.466;5.478;2023-03-23T10:49:07;2.67;;;1.23;;
68365;SDS011;55283;51.466;5.478;2023-03-23T10:51:44;1.80;;;1.10;;
68365;SDS011;55283;51.466;5.478;2023-03-23T10:54:32;5.50;;;1.30;;
68365;SDS011;55283;51.466;5.478;2023-03-23T10:57:11;2.15;;;1.23;;
68365;SDS011;55283;51.466;5.478;2023-03-23T10:59:45;1.83;;;1.10;;
68365;SDS011;55283;51.466;5.478;2023-03-23T11:02:14;2.67;;;1.20;;
68365;SDS011;55283;51.466;5.478;2023-03-23T11:04:45;2.88;;;1.40;;
68365;SDS011;55283;51.466;5.478;2023-03-23T11:07:16;2.83;;;1.30;;
68365;SDS011;55283;51.466;5.478;2023-03-23T11:09:54;4.00;;;1.20;;
68365;SDS011;55283;51.466;5.478;2023-03-23T11:12:21;2.53;;;1.30;;
68365;SDS011;55283;51.466;5.478;2023-03-23T11:14:48;2.83;;;1.73;;
68365;SDS011;55283;51.466;5.478;2023-03-23T11:17:33;4.17;;;1.40;;
68365;SDS011;55283;51.466;5.478;2023-03-23T11:20:09;3.17;;;1.50;;
68365;SDS011;55283;51.466;5.478;2023-03-23T11:22:35;2.72;;;1.33;;
68365;SDS011;55283;51.466;5.478;2023-03-23T11:25:03;3.77;;;1.40;;
68365;SDS011;55283;51.466;5.478;2023-03-23T11:27:30;4.20;;;1.60;;
68365;SDS011;55283;51.466;5.478;2023-03-23T11:30:00;3.33;;;1.50;;
68365;SDS011;55283;51.466;5.478;2023-03-23T11:32:36;7.10;;;1.30;;
68365;SDS011;55283;51.466;5.478;2023-03-23T11:35:17;4.03;;;1.55;;
68365;SDS011;55283;51.466;5.478;2023-03-23T11:37:54;3.60;;;1.55;;
68365;SDS011;55283;51.466;5.478;2023-03-23T11:40:26;5.03;;;1.70;;
68365;SDS011;55283;51.466;5.478;2023-03-23T11:43:12;3.80;;;1.20;;
68365;SDS011;55283;51.466;5.478;2023-03-23T11:45:41;2.60;;;1.30;;
68365;SDS011;55283;51.466;5.478;2023-03-23T11:48:28;2.80;;;1.60;;
68365;SDS011;55283;51.466;5.478;2023-03-23T11:53:54;6.82;;;1.40;;
68365;SDS011;55283;51.466;5.478;2023-03-23T11:56:39;2.30;;;1.27;;
68365;SDS011;55283;51.466;5.478;2023-03-23T11:59:11;3.73;;;1.30;;
68365;SDS011;55283;51.466;5.478;2023-03-23T12:01:50;4.03;;;1.50;;
68365;SDS011;55283;51.466;5.478;2023-03-23T12:04:34;3.47;;;1.38;;
68365;SDS011;55283;51.466;5.478;2023-03-23T12:12:22;2.70;;;1.20;;
68365;SDS011;55283;51.466;5.478;2023-03-23T12:15:22;2.43;;;1.10;;
68365;SDS011;55283;51.466;5.478;2023-03-23T12:25:49;4.07;;;1.30;;
68365;SDS011;55283;51.466;5.478;2023-03-23T12:37:16;2.78;;;1.50;;
68365;SDS011;55283;51.466;5.478;2023-03-23T12:42:54;2.43;;;1.50;;
68365;SDS011;55283;51.466;5.478;2023-03-23T12:48:17;2.30;;;1.23;;
68365;SDS011;55283;51.466;5.478;2023-03-23T12:51:10;1.88;;;1.20;;
68365;SDS011;55283;51.466;5.478;2023-03-23T12:56:18;2.40;;;1.13;;
68365;SDS011;55283;51.466;5.478;2023-03-23T12:58:52;2.65;;;1.20;;
68365;SDS011;55283;51.466;5.478;2023-03-23T13:01:25;2.23;;;1.10;;
68365;SDS011;55283;51.466;5.478;2023-03-23T13:03:57;2.00;;;1.10;;
68365;SDS011;55283;51.466;5.478;2023-03-23T13:06:40;1.83;;;1.10;;
68365;SDS011;55283;51.466;5.478;2023-03-23T13:12:16;2.88;;;1.05;;
68365;SDS011;55283;51.466;5.478;2023-03-23T13:26:12;2.35;;;1.35;;
68365;SDS011;55283;51.466;5.478;2023-03-23T13:31:31;4.30;;;1.27;;
68365;SDS011;55283;51.466;5.478;2023-03-23T13:36:32;2.30;;;1.10;;
68365;SDS011;55283;51.466;5.478;2023-03-23T13:39:01;2.63;;;1.00;;
68365;SDS011;55283;51.466;5.478;2023-03-23T13:41:44;2.65;;;1.23;;
68365;SDS011;55283;51.466;5.478;2023-03-23T13:44:18;1.92;;;1.20;;
68365;SDS011;55283;51.466;5.478;2023-03-23T13:46:57;2.77;;;1.20;;
68365;SDS011;55283;51.466;5.478;2023-03-23T13:49:32;1.75;;;1.10;;
68365;SDS011;55283;51.466;5.478;2023-03-23T13:54:30;3.03;;;1.30;;
68365;SDS011;55283;51.466;5.478;2023-03-23T13:57:32;3.53;;;1.15;;
68365;SDS011;55283;51.466;5.478;2023-03-23T14:00:24;2.80;;;1.10;;
68365;SDS011;55283;51.466;5.478;2023-03-23T14:03:32;1.60;;;1.00;;
68365;SDS011;55283;51.466;5.478;2023-03-23T14:16:02;1.70;;;1.20;;
68365;SDS011;55283;51.466;5.478;2023-03-23T14:18:39;1.83;;;1.17;;
68365;SDS011;55283;51.466;5.478;2023-03-23T14:21:06;2.15;;;1.23;;
68365;SDS011;55283;51.466;5.478;2023-03-23T14:23:40;1.60;;;1.10;;
68365;SDS011;55283;51.466;5.478;2023-03-23T14:26:16;2.63;;;1.30;;
68365;SDS011;55283;51.466;5.478;2023-03-23T14:28:50;2.42;;;1.10;;
68365;SDS011;55283;51.466;5.478;2023-03-23T14:31:21;2.42;;;1.20;;
68365;SDS011;55283;51.466;5.478;2023-03-23T14:33:49;2.30;;;1.10;;
68365;SDS011;55283;51.466;5.478;2023-03-23T14:36:23;1.75;;;1.00;;
68365;SDS011;55283;51.466;5.478;2023-03-23T14:41:31;2.70;;;1.20;;
68365;SDS011;55283;51.466;5.478;2023-03-23T14:44:00;1.70;;;1.00;;
68365;SDS011;55283;51.466;5.478;2023-03-23T14:46:29;2.30;;;1.10;;
68365;SDS011;55283;51.466;5.478;2023-03-23T14:48:56;1.10;;;1.00;;
68365;SDS011;55283;51.466;5.478;2023-03-23T14:51:29;2.63;;;1.20;;
68365;SDS011;55283;51.466;5.478;2023-03-23T14:53:54;1.77;;;1.10;;
68365;SDS011;55283;51.466;5.478;2023-03-23T14:56:23;2.50;;;1.10;;
68365;SDS011;55283;51.466;5.478;2023-03-23T14:59:00;1.97;;;1.20;;
68365;SDS011;55283;51.466;5.478;2023-03-23T15:01:33;2.50;;;1.10;;
68365;SDS011;55283;51.466;5.478;2023-03-23T15:04:09;1.67;;;1.05;;
68365;SDS011;55283;51.466;5.478;2023-03-23T15:06:46;1.80;;;1.10;;
68365;SDS011;55283;51.466;5.478;2023-03-23T15:09:27;5.67;;;1.20;;
68365;SDS011;55283;51.466;5.478;2023-03-23T15:11:56;1.67;;;1.20;;
68365;SDS011;55283;51.466;5.478;2023-03-23T15:14:33;1.35;;;1.00;;
68365;SDS011;55283;51.466;5.478;2023-03-23T15:17:09;1.70;;;1.00;;
68365;SDS011;55283;51.466;5.478;2023-03-23T15:19:43;2.13;;;1.00;;
68365;SDS011;55283;51.466;5.478;2023-03-23T15:22:22;1.60;;;1.20;;
68365;SDS011;55283;51.466;5.478;2023-03-23T15:24:49;2.50;;;1.07;;
68365;SDS011;55283;51.466;5.478;2023-03-23T15:29:53;1.30;;;1.00;;
68365;SDS011;55283;51.466;5.478;2023-03-23T15:32:27;1.83;;;1.10;;
68365;SDS011;55283;51.466;5.478;2023-03-23T15:34:55;2.67;;;1.27;;
68365;SDS011;55283;51.466;5.478;2023-03-23T15:37:29;2.17;;;1.02;;
68365;SDS011;55283;51.466;5.478;2023-03-23T15:40:05;1.90;;;1.07;;
68365;SDS011;55283;51.466;5.478;2023-03-23T15:42:39;2.28;;;1.17;;
68365;SDS011;55283;51.466;5.478;2023-03-23T15:52:50;1.45;;;1.08;;
68365;SDS011;55283;51.466;5.478;2023-03-23T15:55:26;1.83;;;1.10;;
68365;SDS011;55283;51.466;5.478;2023-03-23T15:57:54;3.65;;;1.20;;
68365;SDS011;55283;51.466;5.478;2023-03-23T16:00:22;1.48;;;1.00;;
68365;SDS011;55283;51.466;5.478;2023-03-23T16:03:03;3.80;;;1.10;;
68365;SDS011;55283;51.466;5.478;2023-03-23T16:05:33;1.30;;;1.00;;
68365;SDS011;55283;51.466;5.478;2023-03-23T16:07:59;3.50;;;1.13;;
68365;SDS011;55283;51.466;5.478;2023-03-23T16:10:25;2.03;;;1.10;;
68365;SDS011;55283;51.466;5.478;2023-03-23T16:12:52;2.05;;;0.90;;
68365;SDS011;55283;51.466;5.478;2023-03-23T16:15:17;2.40;;;1.10;;
68365;SDS011;55283;51.466;5.478;2023-03-23T16:17:43;1.23;;;0.98;;
68365;SDS011;55283;51.466;5.478;2023-03-23T16:20:15;3.78;;;1.17;;
68365;SDS011;55283;51.466;5.478;2023-03-23T16:22:45;1.63;;;1.00;;
68365;SDS011;55283;51.466;5.478;2023-03-23T16:25:11;2.23;;;1.10;;
68365;SDS011;55283;51.466;5.478;2023-03-23T16:27:38;1.80;;;1.10;;
68365;SDS011;55283;51.466;5.478;2023-03-23T16:30:14;2.58;;;1.00;;
68365;SDS011;55283;51.466;5.478;2023-03-23T16:32:41;1.30;;;0.90;;
68365;SDS011;55283;51.466;5.478;2023-03-23T16:35:07;2.28;;;1.08;;
68365;SDS011;55283;51.466;5.478;2023-03-23T16:37:33;1.25;;;0.90;;
68365;SDS011;55283;51.466;5.478;2023-03-23T16:40:00;2.20;;;1.00;;
68365;SDS011;55283;51.466;5.478;2023-03-23T16:42:26;1.52;;;0.90;;
68365;SDS011;55283;51.466;5.478;2023-03-23T16:44:51;2.47;;;1.10;;
68365;SDS011;55283;51.466;5.478;2023-03-23T16:47:18;4.15;;;0.95;;
68365;SDS011;55283;51.466;5.478;2023-03-23T16:49:47;2.08;;;0.90;;
68365;SDS011;55283;51.466;5.478;2023-03-23T16:52:12;2.50;;;1.03;;
68365;SDS011;55283;51.466;5.478;2023-03-23T16:54:38;2.07;;;0.90;;
68365;SDS011;55283;51.466;5.478;2023-03-23T16:57:03;2.08;;;0.98;;
68365;SDS011;55283;51.466;5.478;2023-03-23T16:59:31;1.77;;;0.80;;
68365;SDS011;55283;51.466;5.478;2023-03-23T17:01:57;3.20;;;1.30;;
68365;SDS011;55283;51.466;5.478;2023-03-23T17:04:27;3.20;;;1.20;;
68365;SDS011;55283;51.466;5.478;2023-03-23T17:06:58;3.22;;;1.25;;
68365;SDS011;55283;51.466;5.478;2023-03-23T17:09:27;2.27;;;1.33;;
68365;SDS011;55283;51.466;5.478;2023-03-23T17:11:53;1.85;;;1.20;;
68365;SDS011;55283;51.466;5.478;2023-03-23T17:14:19;2.45;;;1.10;;
68365;SDS011;55283;51.466;5.478;2023-03-23T17:16:45;1.52;;;1.02;;
68365;SDS011;55283;51.466;5.478;2023-03-23T17:19:11;3.07;;;1.10;;